Time;durP1;ratioP1;P1;durP2;ratioP2;P2;SDS_P1;SDS_P2;PMS_P1;PMS_P2;Temp;Humidity;BMP_temperature;BMP_pressure;BME280_temperature;BME280_humidity;BME280_pressure;Samples;Min_cycle;Max_cycle;Signal;HPM_P1;HPM_P2
2023/12/22 00:00:47;;;;;;;2.07;1.67;;;15.80;69.20;16.80;99380.00;;;;5070690;28;21220;-44
2023/12/22 00:03:14;;;;;;;1.83;1.43;;;15.80;69.20;16.80;99368.00;;;;5068507;28;20212;-43
2023/12/22 00:05:39;;;;;;;2.23;1.63;;;15.70;70.00;16.80;99376.00;;;;5070716;28;20476;-44
2023/12/22 00:08:06;;;;;;;2.50;1.70;;;15.60;69.50;16.80;99377.00;;;;5071165;28;20181;-43
2023/12/22 00:10:31;;;;;;;2.33;1.50;;;15.60;70.00;16.80;99376.00;;;;5070653;28;20690;-44
2023/12/22 00:12:57;;;;;;;2.30;1.70;;;15.60;70.00;16.70;99356.00;;;;5070947;28;20178;-43
2023/12/22 00:15:23;;;;;;;2.97;1.70;;;15.50;69.90;16.70;99372.00;;;;5070596;28;20187;-43
2023/12/22 00:17:49;;;;;;;1.60;1.40;;;15.50;70.10;16.70;99362.00;;;;5070961;28;20920;-43
2023/12/22 00:20:14;;;;;;;2.17;1.50;;;15.50;70.20;16.70;99351.00;;;;5071098;28;20213;-43
2023/12/22 00:22:40;;;;;;;1.90;1.60;;;15.40;70.10;16.70;99347.00;;;;5070297;28;20197;-43
2023/12/22 00:25:07;;;;;;;1.90;1.40;;;15.40;70.10;16.70;99352.00;;;;5070595;28;20542;-43
2023/12/22 00:27:33;;;;;;;2.10;1.67;;;15.50;70.10;16.60;99380.00;;;;5070443;28;20184;-43
2023/12/22 00:29:59;;;;;;;2.47;1.60;;;15.50;69.90;16.60;99393.00;;;;5070499;28;20195;-43
2023/12/22 00:32:25;;;;;;;1.73;1.30;;;15.40;70.00;16.60;99403.00;;;;5069264;28;20186;-43
2023/12/22 00:34:51;;;;;;;2.10;1.60;;;15.40;70.00;16.60;99416.00;;;;5064212;28;20709;-43
2023/12/22 00:37:16;;;;;;;2.37;1.30;;;15.40;70.20;16.60;99401.00;;;;5070814;28;20208;-44
2023/12/22 00:39:42;;;;;;;2.10;1.50;;;15.40;70.70;16.60;99385.00;;;;5070276;28;20215;-44
2023/12/22 00:42:08;;;;;;;2.47;1.43;;;15.40;70.20;16.60;99384.00;;;;5070594;28;20203;-45
2023/12/22 00:44:33;;;;;;;2.13;1.53;;;15.40;70.20;16.50;99388.00;;;;5070004;28;20174;-43
2023/12/22 00:46:59;;;;;;;2.30;1.70;;;15.30;70.20;16.50;99399.00;;;;5070778;28;20174;-43
2023/12/22 00:49:25;;;;;;;1.77;1.67;;;15.30;70.20;16.50;99385.00;;;;5070097;28;20209;-43
2023/12/22 00:51:50;;;;;;;1.67;1.47;;;15.30;70.30;16.50;99398.00;;;;5070585;28;20725;-43
2023/12/22 00:54:16;;;;;;;1.50;1.40;;;15.30;70.40;16.50;99384.00;;;;5070462;28;20220;-43
2023/12/22 00:56:42;;;;;;;1.37;1.27;;;15.30;70.50;16.50;99374.00;;;;5070977;28;20231;-43
2023/12/22 00:59:08;;;;;;;2.50;1.60;;;15.30;70.50;16.50;99406.00;;;;5071459;28;20240;-44
2023/12/22 01:01:33;;;;;;;1.77;1.40;;;15.30;70.50;16.40;99417.00;;;;5068215;28;20181;-43
2023/12/22 01:03:59;;;;;;;1.30;1.20;;;15.30;70.30;16.40;99423.00;;;;5066501;28;20641;-44
2023/12/22 01:06:25;;;;;;;1.67;1.57;;;15.30;70.50;16.40;99407.00;;;;5068774;28;20226;-44
2023/12/22 01:08:50;;;;;;;1.77;1.50;;;15.30;70.40;16.40;99405.00;;;;5069271;28;20234;-44
2023/12/22 01:11:17;;;;;;;2.17;1.40;;;15.20;70.50;16.40;99403.00;;;;5069236;28;20186;-43
2023/12/22 01:13:43;;;;;;;1.60;1.50;;;15.20;70.30;16.40;99403.00;;;;5068439;28;20182;-43
2023/12/22 01:16:09;;;;;;;1.30;1.20;;;15.20;70.30;16.40;99405.00;;;;5068901;28;20700;-42
2023/12/22 01:18:35;;;;;;;1.47;1.37;;;15.20;70.50;16.40;99420.00;;;;5068652;28;20258;-43
2023/12/22 01:21:01;;;;;;;1.40;1.30;;;15.30;70.60;16.40;99405.00;;;;5069079;28;20284;-43
2023/12/22 01:23:26;;;;;;;1.53;1.40;;;15.20;70.30;16.30;99413.00;;;;5068467;28;20282;-43
2023/12/22 01:25:52;;;;;;;1.30;1.20;;;15.20;70.30;16.30;99400.00;;;;5069172;28;20166;-43
2023/12/22 01:28:18;;;;;;;3.07;1.40;;;15.20;70.30;16.30;99330.00;;;;5068979;28;20197;-43
2023/12/22 01:30:43;;;;;;;2.00;1.40;;;15.10;70.30;16.30;99394.00;;;;5068829;28;20173;-43
2023/12/22 01:33:09;;;;;;;1.27;1.10;;;15.10;70.50;16.30;99408.00;;;;5064197;28;20199;-45
2023/12/22 01:35:35;;;;;;;1.47;1.37;;;15.10;70.50;16.30;99390.00;;;;5066761;28;20235;-43
2023/12/22 01:38:01;;;;;;;1.47;1.33;;;15.10;70.60;16.30;99394.00;;;;5068988;28;20177;-43
2023/12/22 01:40:26;;;;;;;1.77;1.57;;;15.10;70.50;16.30;99397.00;;;;5067163;28;20693;-42
2023/12/22 01:42:52;;;;;;;1.53;1.20;;;15.10;70.40;16.30;99420.00;;;;5068730;28;20198;-43
2023/12/22 01:45:18;;;;;;;1.50;1.20;;;15.10;70.70;16.00;99438.00;;;;5068253;28;20178;-43
2023/12/22 01:47:45;;;;;;;1.40;1.20;;;15.10;70.80;16.20;99446.00;;;;5068144;28;20166;-43
2023/12/22 01:50:11;;;;;;;1.27;1.10;;;15.00;70.70;16.20;99409.00;;;;5051224;28;20204;-44
2023/12/22 01:52:40;;;;;;;1.63;1.43;;;15.10;70.50;16.20;99407.00;;;;5050129;28;20732;-44
2023/12/22 01:55:06;;;;;;;1.40;1.30;;;15.00;70.60;16.20;99419.00;;;;5067101;28;20221;-45
2023/12/22 01:57:34;;;;;;;1.30;1.20;;;15.00;70.70;16.20;99416.00;;;;5067984;28;20671;-44
2023/12/22 02:00:00;;;;;;;1.50;1.40;;;15.00;70.70;16.20;99428.00;;;;5050972;28;20197;-43
2023/12/22 02:02:26;;;;;;;1.90;1.50;;;15.00;70.50;16.20;99419.00;;;;5068124;28;20273;-43
2023/12/22 02:04:51;;;;;;;1.67;1.30;;;15.00;70.70;16.20;99417.00;;;;5065767;28;20211;-43
2023/12/22 02:07:17;;;;;;;1.90;1.40;;;14.90;70.50;16.20;99436.00;;;;5068351;28;20178;-44
2023/12/22 02:09:43;;;;;;;1.50;1.13;;;14.90;70.90;16.10;99425.00;;;;5067760;28;20259;-43
2023/12/22 02:12:09;;;;;;;1.40;1.30;;;15.00;70.80;16.10;99423.00;;;;5067898;28;20207;-43
2023/12/22 02:14:34;;;;;;;1.50;1.20;;;15.00;70.90;16.10;99433.00;;;;5067800;28;20691;-42
2023/12/22 02:17:22;;;;;;;2.20;1.47;;;14.90;70.90;16.10;99429.00;;;;5068122;28;20212;-43
2023/12/22 02:19:47;;;;;;;1.20;1.10;;;14.90;71.00;16.10;99439.00;;;;5052396;28;20189;-44
2023/12/22 02:22:13;;;;;;;1.73;1.43;;;14.90;71.10;16.10;99446.00;;;;5066758;28;20228;-43
2023/12/22 02:24:39;;;;;;;2.03;1.43;;;14.80;70.90;16.10;99445.00;;;;5066069;28;20545;-44
2023/12/22 02:27:24;;;;;;;1.40;1.20;;;14.90;71.20;16.10;99424.00;;;;5068070;28;20265;-44
2023/12/22 02:30:10;;;;;;;1.30;1.20;;;14.90;70.90;16.00;99440.00;;;;5066748;28;20185;-44
2023/12/22 02:32:38;;;;;;;1.87;1.40;;;14.90;70.70;16.00;99436.00;;;;5068305;28;20189;-44
2023/12/22 02:35:09;;;;;;;1.93;1.43;;;14.90;70.80;16.00;99443.00;;;;5062306;28;20177;-45
2023/12/22 02:37:35;;;;;;;1.70;1.33;;;14.90;70.90;16.00;99458.00;;;;5068607;28;20184;-43
2023/12/22 02:40:00;;;;;;;1.53;1.33;;;14.80;70.90;16.00;99481.00;;;;5050228;28;20258;-43
2023/12/22 02:42:29;;;;;;;1.30;1.20;;;14.80;70.90;16.00;99452.00;;;;5049558;28;20205;-43
2023/12/22 02:44:59;;;;;;;1.83;1.50;;;14.80;70.80;16.00;99458.00;;;;5067642;28;20185;-44
2023/12/22 02:47:27;;;;;;;1.73;1.10;;;14.80;70.70;16.00;99453.00;;;;5067470;28;20178;-43
2023/12/22 02:49:53;;;;;;;1.37;1.10;;;14.80;70.80;16.00;99461.00;;;;5067317;28;20303;-43
2023/12/22 02:52:19;;;;;;;1.17;1.03;;;14.80;70.90;16.00;99458.00;;;;5067758;28;20268;-43
2023/12/22 02:54:47;;;;;;;1.30;1.20;;;14.90;70.70;16.00;99454.00;;;;5067340;28;20706;-44
2023/12/22 02:57:12;;;;;;;1.80;1.33;;;14.90;70.50;16.00;99471.00;;;;5067206;28;20170;-43
2023/12/22 02:59:38;;;;;;;1.40;1.30;;;14.90;70.50;16.00;99461.00;;;;5067302;28;20206;-43
2023/12/22 03:02:04;;;;;;;1.70;1.27;;;14.90;70.40;16.00;99454.00;;;;5067455;28;20757;-43
2023/12/22 03:04:30;;;;;;;1.40;1.20;;;14.90;70.40;16.00;99429.00;;;;5064434;28;20231;-42
2023/12/22 03:06:55;;;;;;;1.07;0.97;;;14.90;70.50;16.00;99449.00;;;;5063360;28;20188;-44
2023/12/22 03:09:21;;;;;;;1.57;1.30;;;14.90;70.50;15.90;99446.00;;;;5063442;28;20525;-43
2023/12/22 03:11:48;;;;;;;1.00;0.90;;;14.80;70.50;15.90;99445.00;;;;5067333;28;20166;-44
2023/12/22 03:14:14;;;;;;;1.23;1.10;;;14.80;70.50;15.90;99440.00;;;;5067304;28;20652;-43
2023/12/22 03:16:40;;;;;;;1.37;1.03;;;14.80;70.60;15.90;99440.00;;;;5067147;28;20257;-43
2023/12/22 03:19:07;;;;;;;0.93;0.93;;;14.80;71.20;15.90;99443.00;;;;5067422;28;20288;-43
2023/12/22 03:21:32;;;;;;;1.87;1.10;;;14.80;71.40;15.90;99427.00;;;;5067059;28;20173;-50
2023/12/22 03:23:58;;;;;;;1.60;1.30;;;14.80;71.40;15.90;99434.00;;;;5066889;28;20251;-44
2023/12/22 03:26:26;;;;;;;1.17;1.10;;;14.80;70.90;15.90;99429.00;;;;5066384;28;20223;-44
2023/12/22 03:28:52;;;;;;;1.10;1.00;;;14.80;70.90;15.90;99438.00;;;;5050692;28;20193;-44
2023/12/22 03:31:18;;;;;;;2.70;1.37;;;14.70;71.00;15.90;99444.00;;;;5065962;28;20300;-44
2023/12/22 03:33:43;;;;;;;1.30;1.20;;;14.80;71.10;15.90;99439.00;;;;5060521;28;20189;-44
2023/12/22 03:36:09;;;;;;;1.17;1.10;;;14.80;71.20;15.90;99441.00;;;;5067726;28;20189;-44
2023/12/22 03:38:35;;;;;;;1.53;1.20;;;14.70;71.10;15.90;99441.00;;;;5065900;28;20263;-44
2023/12/22 03:41:00;;;;;;;1.67;1.20;;;14.70;71.00;15.80;99458.00;;;;5067550;28;20205;-44
2023/12/22 03:43:26;;;;;;;1.87;1.20;;;14.70;71.30;15.80;99456.00;;;;5066469;28;20557;-44
2023/12/22 03:45:52;;;;;;;0.97;0.90;;;14.70;71.10;15.80;99463.00;;;;5067383;28;20223;-44
2023/12/22 03:48:18;;;;;;;1.50;1.40;;;14.80;70.90;15.80;99474.00;;;;5067252;28;20598;-44
2023/12/22 03:50:43;;;;;;;1.63;1.33;;;14.70;70.80;15.80;99449.00;;;;5067179;28;20174;-44
2023/12/22 03:53:09;;;;;;;1.20;1.10;;;14.70;70.80;15.80;99464.00;;;;5067088;28;20209;-44
2023/12/22 03:55:35;;;;;;;1.47;1.17;;;14.80;70.80;15.60;99469.00;;;;5066944;28;20177;-44
2023/12/22 03:58:01;;;;;;;1.40;1.30;;;14.80;70.70;15.80;99466.00;;;;5067163;28;20185;-44
2023/12/22 04:00:26;;;;;;;1.30;1.20;;;14.80;70.50;15.80;99384.00;;;;5066436;28;20201;-45
2023/12/22 04:02:52;;;;;;;1.23;1.13;;;14.80;70.40;15.80;99447.00;;;;5065852;28;20240;-44
2023/12/22 04:05:18;;;;;;;1.47;1.37;;;14.70;70.40;15.80;99437.00;;;;5067420;28;20218;-44
2023/12/22 04:07:44;;;;;;;1.23;1.10;;;14.80;70.40;15.80;99448.00;;;;5065975;28;20179;-44
2023/12/22 04:10:10;;;;;;;1.60;1.20;;;14.80;70.40;15.80;99447.00;;;;5071569;28;20197;-44
2023/12/22 04:12:36;;;;;;;0.73;0.73;;;14.70;70.40;15.80;99456.00;;;;5071416;28;20182;-44
2023/12/22 04:15:02;;;;;;;1.20;1.10;;;14.70;70.30;15.80;99454.00;;;;5071335;28;20177;-45
2023/12/22 04:17:27;;;;;;;0.90;0.90;;;14.80;70.40;15.80;99432.00;;;;5070409;28;20671;-43
2023/12/22 04:19:53;;;;;;;1.50;0.87;;;14.80;70.40;15.80;99439.00;;;;5065213;28;20208;-42
2023/12/22 04:22:19;;;;;;;1.03;0.93;;;14.70;70.30;15.80;99446.00;;;;5070306;28;20205;-44
2023/12/22 04:24:45;;;;;;;1.43;1.30;;;14.70;70.30;15.70;99459.00;;;;5071359;28;20185;-43
2023/12/22 04:27:10;;;;;;;1.30;1.20;;;14.70;70.50;15.70;99449.00;;;;5071441;28;20519;-43
2023/12/22 04:29:36;;;;;;;1.90;1.33;;;14.60;71.10;15.70;99413.00;;;;5070889;28;20225;-45
2023/12/22 04:32:02;;;;;;;5.23;1.10;;;14.70;70.80;15.70;99462.00;;;;5071330;28;20181;-42
2023/12/22 04:34:27;;;;;;;6.07;1.40;;;14.70;70.80;15.70;99441.00;;;;5064517;28;20209;-42
2023/12/22 04:36:53;;;;;;;1.53;1.10;;;14.70;70.80;15.70;99437.00;;;;5071442;28;20185;-43
2023/12/22 04:39:19;;;;;;;3.27;1.20;;;14.70;70.80;15.70;99438.00;;;;5070941;28;20599;-43
2023/12/22 04:41:45;;;;;;;2.80;1.17;;;14.70;70.80;15.60;99447.00;;;;5071018;28;20683;-43
2023/12/22 04:44:10;;;;;;;1.93;1.20;;;14.70;70.80;15.60;99442.00;;;;5070845;28;20209;-44
2023/12/22 04:46:36;;;;;;;5.37;1.40;;;14.70;70.90;15.60;99460.00;;;;5070924;28;20189;-43
2023/12/22 04:49:02;;;;;;;1.50;1.40;;;14.70;70.70;15.60;99444.00;;;;5070970;28;20213;-45
2023/12/22 04:51:27;;;;;;;3.87;1.53;;;14.70;70.60;15.60;99456.00;;;;5071022;28;20181;-42
2023/12/22 04:53:53;;;;;;;1.60;1.20;;;14.70;70.60;15.60;99447.00;;;;5070910;28;20281;-43
2023/12/22 04:56:19;;;;;;;2.20;1.53;;;14.70;70.40;15.60;99462.00;;;;5069682;28;20181;-43
2023/12/22 04:58:45;;;;;;;1.80;1.60;;;14.70;70.40;15.60;99459.00;;;;5069310;28;20202;-43
2023/12/22 05:01:10;;;;;;;2.47;1.53;;;14.70;70.30;15.60;99472.00;;;;5070893;28;20189;-42
2023/12/22 05:03:36;;;;;;;2.10;1.37;;;14.70;70.20;15.60;99468.00;;;;5068025;28;20209;-42
2023/12/22 05:06:02;;;;;;;2.37;1.30;;;14.70;70.10;15.60;99468.00;;;;5071037;28;20589;-44
2023/12/22 05:08:27;;;;;;;1.40;1.30;;;14.70;70.00;15.60;99467.00;;;;5069359;28;20205;-45
2023/12/22 05:10:53;;;;;;;1.40;1.30;;;14.70;69.80;15.60;99473.00;;;;5055083;28;20771;-45
2023/12/22 05:13:19;;;;;;;2.87;1.53;;;14.70;69.80;15.50;99468.00;;;;5062257;28;20173;-44
2023/12/22 05:15:45;;;;;;;2.27;1.50;;;14.70;69.70;15.60;99468.00;;;;5067867;28;20190;-44
2023/12/22 05:18:11;;;;;;;2.60;1.63;;;14.70;69.60;15.50;99463.00;;;;5058651;28;20277;-45
2023/12/22 05:20:36;;;;;;;2.73;1.73;;;14.70;69.60;15.50;99461.00;;;;5050156;28;20273;-43
2023/12/22 05:23:04;;;;;;;2.73;1.70;;;14.60;69.60;15.50;99470.00;;;;5046626;28;20203;-44
2023/12/22 05:25:29;;;;;;;3.07;1.70;;;14.60;69.60;15.50;99450.00;;;;5049333;28;20182;-43
2023/12/22 05:27:55;;;;;;;2.43;1.43;;;14.60;69.70;15.50;99461.00;;;;5051064;28;20706;-43
2023/12/22 05:30:21;;;;;;;3.47;1.80;;;14.60;69.70;15.50;99470.00;;;;5050314;28;20787;-42
2023/12/22 05:32:47;;;;;;;3.87;2.00;;;14.60;69.80;15.50;99463.00;;;;5050366;28;20200;-42
2023/12/22 05:35:13;;;;;;;2.53;1.70;;;14.50;69.80;15.50;99476.00;;;;5049672;28;20182;-43
2023/12/22 05:37:39;;;;;;;2.90;1.80;;;14.60;70.00;15.50;99487.00;;;;5049556;28;20187;-43
2023/12/22 05:40:09;;;;;;;3.23;1.80;;;14.60;70.00;15.50;99482.00;;;;5050047;28;20206;-43
2023/12/22 05:42:35;;;;;;;4.07;1.67;;;14.50;69.90;15.50;99495.00;;;;5048875;28;20219;-43
2023/12/22 05:45:01;;;;;;;2.53;1.77;;;14.50;69.90;15.50;99494.00;;;;5048120;28;20300;-43
2023/12/22 05:47:26;;;;;;;2.77;1.80;;;14.50;70.10;15.50;99497.00;;;;5048414;28;20182;-43
2023/12/22 05:49:52;;;;;;;4.20;1.90;;;14.50;70.10;15.50;99484.00;;;;5048904;28;20201;-43
2023/12/22 05:52:18;;;;;;;5.70;2.00;;;14.50;70.00;15.40;99475.00;;;;5048393;28;20178;-42
2023/12/22 05:54:44;;;;;;;3.20;2.03;;;14.50;70.00;15.40;99484.00;;;;5048234;28;20212;-43
2023/12/22 05:57:09;;;;;;;2.90;1.90;;;14.50;70.10;15.40;99482.00;;;;5049524;28;20186;-45
2023/12/22 05:59:35;;;;;;;4.13;1.93;;;14.40;70.00;15.40;99471.00;;;;5049513;28;20213;-42
2023/12/22 06:02:02;;;;;;;4.17;1.77;;;14.40;70.00;15.40;99484.00;;;;5048331;28;20670;-45
2023/12/22 06:04:28;;;;;;;4.87;2.10;;;14.50;70.10;15.40;99480.00;;;;5051601;28;20205;-44
2023/12/22 06:06:54;;;;;;;3.67;1.80;;;14.40;70.00;15.40;99481.00;;;;5049651;28;20217;-44
2023/12/22 06:09:21;;;;;;;2.90;1.90;;;14.40;70.00;15.40;99471.00;;;;5050066;28;20262;-44
2023/12/22 06:11:47;;;;;;;4.07;2.20;;;14.40;70.10;15.40;99507.00;;;;5049138;28;20261;-45
2023/12/22 06:14:13;;;;;;;3.90;2.30;;;14.40;70.00;15.40;99518.00;;;;5049007;28;20285;-44
2023/12/22 06:16:39;;;;;;;3.90;2.10;;;14.40;70.00;15.40;99528.00;;;;5049258;28;20186;-44
2023/12/22 06:19:05;;;;;;;3.83;2.20;;;14.40;70.00;15.40;99533.00;;;;5047640;28;20206;-44
2023/12/22 06:21:31;;;;;;;6.27;2.50;;;14.30;70.10;15.40;99525.00;;;;5056972;28;20242;-44
2023/12/22 06:23:56;;;;;;;7.10;2.60;;;14.40;70.10;15.40;99519.00;;;;5048535;28;20205;-44
2023/12/22 06:26:22;;;;;;;5.67;2.23;;;14.30;69.90;15.40;99528.00;;;;5050834;28;20185;-44
2023/12/22 06:28:48;;;;;;;4.50;2.40;;;14.40;70.10;15.30;99516.00;;;;5049141;28;20194;-43
2023/12/22 06:31:18;;;;;;;4.03;2.23;;;14.40;70.00;15.30;99522.00;;;;5048255;28;20647;-43
2023/12/22 06:33:44;;;;;;;7.87;2.50;;;14.40;70.00;15.30;99526.00;;;;5049223;28;20178;-44
2023/12/22 06:36:20;;;;;;;3.77;2.37;;;14.40;70.00;15.30;99525.00;;;;5049331;28;20604;-43
2023/12/22 06:38:47;;;;;;;4.10;2.40;;;14.30;70.00;15.30;99522.00;;;;5049014;28;20213;-43
2023/12/22 06:41:29;;;;;;;3.73;2.50;;;14.30;70.00;15.30;99528.00;;;;5049192;28;20178;-44
2023/12/22 06:43:55;;;;;;;6.50;2.30;;;14.30;70.00;15.30;99527.00;;;;5048758;28;20224;-42
2023/12/22 06:46:22;;;;;;;4.27;2.57;;;14.30;70.10;15.30;99529.00;;;;5048960;28;20198;-43
2023/12/22 06:48:48;;;;;;;2.63;1.93;;;14.30;70.10;15.30;99526.00;;;;5048470;28;20202;-46
2023/12/22 06:51:27;;;;;;;3.43;2.50;;;14.30;70.00;15.30;99530.00;;;;5048650;28;20183;-44
2023/12/22 06:53:53;;;;;;;4.17;2.30;;;14.30;69.90;15.20;99539.00;;;;5047004;28;20217;-43
2023/12/22 06:56:20;;;;;;;4.10;2.37;;;14.30;69.90;15.30;99524.00;;;;5048592;28;20722;-43
2023/12/22 06:58:48;;;;;;;4.37;2.67;;;14.30;70.00;15.20;99527.00;;;;5048493;28;20292;-44
2023/12/22 07:01:23;;;;;;;3.00;2.23;;;14.30;70.00;15.20;99522.00;;;;5048455;28;20182;-45
2023/12/22 07:03:49;;;;;;;3.70;2.80;;;14.30;70.00;15.30;99545.00;;;;5051841;28;20288;-44
2023/12/22 07:06:19;;;;;;;5.27;2.90;;;14.30;70.00;15.20;99539.00;;;;5048087;28;20273;-43
2023/12/22 07:09:16;;;;;;;4.80;2.93;;;14.30;70.00;15.20;99531.00;;;;5048370;28;20302;-43
2023/12/22 07:11:45;;;;;;;4.00;2.80;;;14.20;69.90;15.20;99535.00;;;;5048937;28;20596;-43
2023/12/22 07:14:11;;;;;;;4.60;2.73;;;14.20;69.90;15.20;99513.00;;;;5047988;28;20182;-43
2023/12/22 07:16:37;;;;;;;4.40;2.70;;;14.20;70.00;15.20;99527.00;;;;5048171;28;20656;-43
2023/12/22 07:19:04;;;;;;;3.50;2.60;;;14.20;69.80;15.20;99522.00;;;;5048524;28;20570;-47
2023/12/22 07:21:30;;;;;;;6.20;2.87;;;14.30;69.80;15.20;99510.00;;;;5048840;28;20193;-44
2023/12/22 07:23:55;;;;;;;3.63;2.60;;;14.30;69.80;15.20;99520.00;;;;5030197;28;20210;-44
2023/12/22 07:26:21;;;;;;;3.23;2.50;;;14.30;69.80;15.20;99520.00;;;;5050198;28;20174;-44
2023/12/22 07:28:47;;;;;;;3.73;2.60;;;14.20;69.70;15.20;99528.00;;;;5048992;28;20198;-44
2023/12/22 07:31:14;;;;;;;3.33;2.60;;;14.20;69.80;15.20;99532.00;;;;5050547;28;20897;-43
2023/12/22 07:33:43;;;;;;;2.93;2.40;;;14.20;69.80;15.20;99535.00;;;;5048145;28;20257;-43
2023/12/22 07:36:08;;;;;;;3.00;2.40;;;14.20;69.80;15.20;99523.00;;;;5048485;28;20261;-44
2023/12/22 07:38:34;;;;;;;3.13;2.47;;;14.10;69.80;15.20;99528.00;;;;5048495;28;20277;-44
2023/12/22 07:41:00;;;;;;;3.30;2.70;;;14.10;69.80;15.20;99526.00;;;;5048662;28;20186;-44
2023/12/22 07:43:26;;;;;;;2.80;2.50;;;14.20;69.80;15.10;99532.00;;;;5051125;28;20531;-43
2023/12/22 07:45:51;;;;;;;4.00;2.67;;;14.20;69.70;15.10;99526.00;;;;5044149;28;20815;-43
2023/12/22 07:48:18;;;;;;;2.73;2.40;;;14.20;69.60;15.10;99517.00;;;;5052153;28;20293;-44
2023/12/22 07:50:45;;;;;;;4.37;2.77;;;14.10;69.60;15.10;99535.00;;;;5052480;28;20182;-45
2023/12/22 07:53:10;;;;;;;3.43;2.60;;;14.10;69.60;15.10;99534.00;;;;5051844;28;20189;-43
2023/12/22 07:55:38;;;;;;;3.70;2.50;;;14.10;69.60;15.10;99542.00;;;;5052095;28;20652;-43
2023/12/22 07:58:07;;;;;;;3.17;2.40;;;14.10;69.70;15.10;99540.00;;;;5058229;28;20610;-43
2023/12/22 08:00:33;;;;;;;2.60;2.17;;;14.10;69.70;15.10;99539.00;;;;5052280;28;20831;-43
2023/12/22 08:02:59;;;;;;;2.47;2.23;;;14.10;69.80;15.10;99529.00;;;;5052528;28;20202;-45
2023/12/22 08:05:25;;;;;;;3.20;2.30;;;14.10;69.80;15.10;99533.00;;;;5054914;28;20178;-44
2023/12/22 08:07:50;;;;;;;2.30;2.10;;;14.10;69.80;15.10;99532.00;;;;5051749;28;20182;-44
2023/12/22 08:10:16;;;;;;;2.50;2.30;;;14.00;69.70;15.00;99537.00;;;;5051952;28;20202;-44
2023/12/22 08:12:42;;;;;;;3.17;2.40;;;14.00;69.80;15.10;99531.00;;;;5051975;28;20213;-44
2023/12/22 08:15:10;;;;;;;2.80;2.30;;;14.10;69.80;15.10;99538.00;;;;5051150;28;20179;-44
2023/12/22 08:17:37;;;;;;;2.57;2.20;;;14.10;69.80;15.10;99531.00;;;;5051942;28;20213;-44
2023/12/22 08:20:04;;;;;;;2.70;2.47;;;14.00;69.70;15.10;99536.00;;;;5051600;28;20209;-44
2023/12/22 08:22:30;;;;;;;3.40;2.50;;;14.10;69.80;15.10;99549.00;;;;5051609;28;20683;-44
2023/12/22 08:24:55;;;;;;;3.03;2.50;;;14.00;69.60;15.00;99550.00;;;;5049508;28;20190;-44
2023/12/22 08:27:21;;;;;;;2.87;2.57;;;14.00;69.80;15.00;99544.00;;;;5054186;28;20182;-43
2023/12/22 08:29:47;;;;;;;2.93;2.33;;;14.00;69.70;15.00;99542.00;;;;5051774;28;20206;-44
2023/12/22 08:32:12;;;;;;;3.00;2.30;;;14.00;69.70;15.00;99548.00;;;;5053548;28;20179;-45
2023/12/22 08:34:38;;;;;;;2.93;2.40;;;14.00;69.60;15.00;99545.00;;;;5051309;28;20182;-43
2023/12/22 08:37:04;;;;;;;3.43;2.30;;;14.00;69.70;15.00;99541.00;;;;5051623;28;20175;-44
2023/12/22 08:39:29;;;;;;;3.50;2.20;;;14.00;69.80;15.00;99538.00;;;;5051406;28;20210;-43
2023/12/22 08:41:55;;;;;;;5.27;2.60;;;14.00;69.80;15.00;99537.00;;;;5051551;28;20216;-43
2023/12/22 08:44:21;;;;;;;3.13;2.27;;;13.90;69.80;15.00;99542.00;;;;5051235;28;20259;-43
2023/12/22 08:46:47;;;;;;;2.57;2.17;;;14.00;70.20;15.00;99542.00;;;;5051437;28;20179;-43
2023/12/22 08:49:12;;;;;;;2.80;2.40;;;14.00;69.80;15.00;99535.00;;;;5051297;28;20597;-43
2023/12/22 08:51:38;;;;;;;4.27;2.60;;;14.00;69.70;15.00;99542.00;;;;5048134;28;20554;-43
2023/12/22 08:54:05;;;;;;;3.50;2.40;;;14.00;69.60;15.00;99537.00;;;;5049962;28;20241;-43
2023/12/22 08:56:30;;;;;;;2.97;2.50;;;14.00;69.60;15.00;99532.00;;;;5049828;28;20206;-44
2023/12/22 08:58:58;;;;;;;2.53;2.03;;;13.90;69.70;15.00;99531.00;;;;5050395;28;20202;-43
2023/12/22 09:01:24;;;;;;;3.60;2.37;;;14.00;69.70;15.00;99534.00;;;;5050128;28;20244;-43
2023/12/22 09:03:50;;;;;;;2.80;2.20;;;13.90;69.60;15.00;99523.00;;;;5054165;28;20194;-43
2023/12/22 09:06:20;;;;;;;2.87;2.40;;;13.90;69.60;14.90;99524.00;;;;5050344;28;20186;-43
2023/12/22 09:08:46;;;;;;;4.83;2.60;;;13.90;69.60;14.90;99517.00;;;;5051117;28;20252;-43
2023/12/22 09:11:12;;;;;;;2.63;2.37;;;13.90;69.70;14.90;99515.00;;;;5051105;28;20581;-44
2023/12/22 09:13:38;;;;;;;3.37;2.20;;;13.90;69.80;14.90;99512.00;;;;5050147;28;20197;-43
2023/12/22 09:16:05;;;;;;;3.63;2.37;;;13.90;69.80;14.90;99496.00;;;;5050806;28;20667;-43
2023/12/22 09:18:31;;;;;;;2.97;2.30;;;13.90;69.80;14.90;99506.00;;;;5050776;28;20200;-43
2023/12/22 09:20:57;;;;;;;3.07;2.50;;;13.90;69.70;14.90;99502.00;;;;5050778;28;20225;-43
2023/12/22 09:23:23;;;;;;;9.47;2.90;;;13.90;69.80;14.90;99501.00;;;;5050617;28;20213;-43
2023/12/22 09:25:49;;;;;;;8.23;2.60;;;13.80;70.40;14.90;99495.00;;;;5050914;28;20192;-42
2023/12/22 09:28:15;;;;;;;8.63;2.93;;;13.80;70.30;14.90;99498.00;;;;5053482;28;20186;-42
2023/12/22 09:30:41;;;;;;;5.87;2.43;;;13.90;71.00;14.90;99499.00;;;;5050494;28;20778;-43
2023/12/22 09:33:09;;;;;;;10.67;2.60;;;13.90;70.90;14.90;99493.00;;;;5044786;28;20237;-43
2023/12/22 09:35:35;;;;;;;8.53;2.83;;;14.00;70.90;14.90;99487.00;;;;5047327;28;20294;-45
2023/12/22 09:38:01;;;;;;;11.27;2.70;;;14.10;71.00;14.90;99495.00;;;;5048543;28;20189;-46
2023/12/22 09:40:27;;;;;;;7.47;2.77;;;14.20;71.20;15.00;99503.00;;;;5049365;28;20178;-45
2023/12/22 09:42:54;;;;;;;5.87;2.50;;;14.30;70.80;15.10;99490.00;;;;5041082;28;20640;-46
2023/12/22 09:45:20;;;;;;;8.03;2.70;;;14.30;70.70;15.10;99482.00;;;;5050577;28;20183;-46
2023/12/22 09:47:46;;;;;;;7.43;2.80;;;14.50;70.60;15.20;99483.00;;;;5034133;28;20181;-45
2023/12/22 09:50:13;;;;;;;8.10;2.70;;;14.60;70.50;15.30;99484.00;;;;5032792;28;20595;-46
2023/12/22 09:52:40;;;;;;;6.10;2.60;;;14.80;70.50;15.40;99477.00;;;;5050258;28;20193;-46
2023/12/22 09:55:07;;;;;;;4.70;2.40;;;14.90;70.40;15.50;99460.00;;;;5049464;28;20197;-45
2023/12/22 09:57:33;;;;;;;4.20;2.20;;;15.10;70.60;15.60;99445.00;;;;5016248;28;20182;-46
2023/12/22 09:59:58;;;;;;;4.20;2.67;;;15.20;70.10;15.80;99461.00;;;;5031527;28;20206;-45
2023/12/22 10:02:26;;;;;;;4.43;2.50;;;15.40;70.90;15.90;99457.00;;;;5049219;28;20340;-46
2023/12/22 10:04:52;;;;;;;3.80;2.53;;;15.60;70.00;16.00;99450.00;;;;5050459;28;20177;-45
2023/12/22 10:07:18;;;;;;;2.87;2.13;;;15.70;69.80;16.10;99454.00;;;;5032261;28;20555;-46
2023/12/22 10:09:45;;;;;;;4.77;2.40;;;15.80;69.60;16.20;99451.00;;;;5016026;28;20206;-45
2023/12/22 10:12:11;;;;;;;8.27;2.60;;;15.90;69.40;16.40;99453.00;;;;5015162;28;20603;-46
2023/12/22 10:14:38;;;;;;;5.27;2.60;;;16.10;69.60;16.50;99450.00;;;;5048809;28;20586;-45
2023/12/22 10:17:05;;;;;;;4.77;2.50;;;16.20;69.60;16.60;99454.00;;;;5029184;28;20826;-45
2023/12/22 10:19:30;;;;;;;4.40;2.10;;;16.30;69.40;16.70;99447.00;;;;5045811;28;20208;-45
2023/12/22 10:21:56;;;;;;;4.97;2.57;;;16.40;69.20;16.80;99445.00;;;;5049278;28;20174;-45
2023/12/22 10:24:47;;;;;;;5.73;2.57;;;16.50;69.10;16.90;99457.00;;;;5049069;28;20216;-45
2023/12/22 10:27:15;;;;;;;6.87;2.57;;;16.60;69.10;17.00;99442.00;;;;5046788;28;20184;-44
2023/12/22 10:29:41;;;;;;;4.83;2.40;;;16.60;69.10;17.10;99432.00;;;;5048153;28;20618;-44
2023/12/22 10:32:08;;;;;;;5.53;2.20;;;16.80;68.90;17.20;99407.00;;;;5049454;28;20294;-45
2023/12/22 10:34:34;;;;;;;13.27;3.13;;;16.80;68.80;17.30;99435.00;;;;5049463;28;20187;-45
2023/12/22 10:37:00;;;;;;;9.67;2.97;;;16.90;69.40;17.30;99432.00;;;;5049664;28;20177;-45
2023/12/22 10:39:30;;;;;;;9.90;2.70;;;17.00;69.20;17.40;99420.00;;;;5049283;28;20691;-45
2023/12/22 10:41:57;;;;;;;8.77;2.70;;;17.00;69.30;17.50;99423.00;;;;5041790;28;20185;-45
2023/12/22 10:44:26;;;;;;;7.43;2.80;;;17.10;69.40;17.60;99418.00;;;;5014919;28;20216;-45
2023/12/22 10:46:53;;;;;;;8.73;2.90;;;17.10;69.50;17.60;99400.00;;;;5048975;28;20182;-45
2023/12/22 10:49:19;;;;;;;7.53;2.37;;;17.20;69.50;17.70;99410.00;;;;5049086;28;20219;-44
2023/12/22 10:51:45;;;;;;;10.83;2.70;;;17.20;69.60;17.70;99413.00;;;;5049664;28;21253;-45